Houston Heights, Texas
Current Conditions -  °F | °C
As of 4:15 AM on Thursday 29 Jan 2015 (Local Time) from KMCJ Reporting Station
Clear Clear  
Wind Chill: 59°   Ceiling: Unl
Heat Index: 59°   Visibility: 10mi
Dew Point: 59°   Wind: 7mph
Humidity: 100%   Direction: 200°SSW
Pressure: 30.12"   Gusts: NA
Location:  29.7982°N, 95.4183°W
Report Text: KMCJ 291015Z AUTO 20006KT 10SM CLR 15/15 A3012 RMK AO1
Loading
Personal Weather Stations






























Interactive Weather Map New forecast layout! Learn more

10-Day Weather Forecast

Advertisements
Track Severe Weather on mobile